sensor_id;sensor_type;location;lat;lon;timestamp;temperature;humidity
66576;SHT31;53428;47.686;16.584;2024-03-29T00:02:03;6.77;96.39
66576;SHT31;53428;47.686;16.584;2024-03-29T00:07:03;6.53;97.68
66576;SHT31;53428;47.686;16.584;2024-03-29T00:12:03;6.53;97.59
66576;SHT31;53428;47.686;16.584;2024-03-29T00:17:02;6.08;97.74
66576;SHT31;53428;47.686;16.584;2024-03-29T00:22:03;6.42;98.65
66576;SHT31;53428;47.686;16.584;2024-03-29T00:27:02;6.50;97.93
66576;SHT31;53428;47.686;16.584;2024-03-29T00:32:03;6.29;97.81
66576;SHT31;53428;47.686;16.584;2024-03-29T00:37:02;6.25;97.55
66576;SHT31;53428;47.686;16.584;2024-03-29T00:42:02;6.17;98.32
66576;SHT31;53428;47.686;16.584;2024-03-29T00:47:01;5.87;98.54
66576;SHT31;53428;47.686;16.584;2024-03-29T00:52:02;5.83;99.13
66576;SHT31;53428;47.686;16.584;2024-03-29T00:57:01;5.84;99.99
66576;SHT31;53428;47.686;16.584;2024-03-29T01:02:00;5.86;98.17
66576;SHT31;53428;47.686;16.584;2024-03-29T01:07:00;5.87;97.64
66576;SHT31;53428;47.686;16.584;2024-03-29T01:11:59;5.75;96.72
66576;SHT31;53428;47.686;16.584;2024-03-29T01:16:58;5.44;96.43
66576;SHT31;53428;47.686;16.584;2024-03-29T01:21:57;5.40;97.64
66576;SHT31;53428;47.686;16.584;2024-03-29T01:26:57;5.02;98.53
66576;SHT31;53428;47.686;16.584;2024-03-29T01:31:58;5.23;98.53
66576;SHT31;53428;47.686;16.584;2024-03-29T01:36:57;4.94;99.28
66576;SHT31;53428;47.686;16.584;2024-03-29T01:41:57;4.89;99.27
66576;SHT31;53428;47.686;16.584;2024-03-29T01:46:56;4.78;99.99
66576;SHT31;53428;47.686;16.584;2024-03-29T01:51:55;4.40;99.99
66576;SHT31;53428;47.686;16.584;2024-03-29T01:56:54;4.88;99.99
66576;SHT31;53428;47.686;16.584;2024-03-29T02:01:55;4.83;99.99
66576;SHT31;53428;47.686;16.584;2024-03-29T02:06:54;4.81;99.99
66576;SHT31;53428;47.686;16.584;2024-03-29T02:11:54;5.07;99.99
66576;SHT31;53428;47.686;16.584;2024-03-29T02:16:53;5.07;99.99
66576;SHT31;53428;47.686;16.584;2024-03-29T02:21:53;5.08;99.99
66576;SHT31;53428;47.686;16.584;2024-03-29T02:26:56;5.07;98.35
66576;SHT31;53428;47.686;16.584;2024-03-29T02:31:56;5.23;96.16
66576;SHT31;53428;47.686;16.584;2024-03-29T02:36:55;4.85;97.35
66576;SHT31;53428;47.686;16.584;2024-03-29T02:41:56;4.84;97.06
66576;SHT31;53428;47.686;16.584;2024-03-29T02:46:55;4.65;97.65
66576;SHT31;53428;47.686;16.584;2024-03-29T02:51:54;4.56;98.72
66576;SHT31;53428;47.686;16.584;2024-03-29T02:56:53;4.32;99.15
66576;SHT31;53428;47.686;16.584;2024-03-29T03:01:53;4.32;99.69
66576;SHT31;53428;47.686;16.584;2024-03-29T03:06:52;4.28;99.99
66576;SHT31;53428;47.686;16.584;2024-03-29T03:11:51;4.56;99.37
66576;SHT31;53428;47.686;16.584;2024-03-29T03:16:52;4.22;99.99
66576;SHT31;53428;47.686;16.584;2024-03-29T03:21:51;4.03;99.99
66576;SHT31;53428;47.686;16.584;2024-03-29T03:26:50;3.96;99.99
66576;SHT31;53428;47.686;16.584;2024-03-29T03:31:49;3.73;99.99
66576;SHT31;53428;47.686;16.584;2024-03-29T03:36:48;3.46;99.99
66576;SHT31;53428;47.686;16.584;2024-03-29T03:41:48;3.89;99.99
66576;SHT31;53428;47.686;16.584;2024-03-29T03:46:47;3.75;99.99
66576;SHT31;53428;47.686;16.584;2024-03-29T03:51:46;3.57;99.99
66576;SHT31;53428;47.686;16.584;2024-03-29T03:56:46;3.91;99.99
66576;SHT31;53428;47.686;16.584;2024-03-29T04:01:45;3.92;99.99
66576;SHT31;53428;47.686;16.584;2024-03-29T04:06:44;3.58;99.99
66576;SHT31;53428;47.686;16.584;2024-03-29T04:11:43;3.41;99.99
66576;SHT31;53428;47.686;16.584;2024-03-29T04:16:43;3.51;99.99
66576;SHT31;53428;47.686;16.584;2024-03-29T04:21:42;3.51;99.99
66576;SHT31;53428;47.686;16.584;2024-03-29T04:26:41;3.53;99.99
66576;SHT31;53428;47.686;16.584;2024-03-29T04:31:48;3.70;99.99
66576;SHT31;53428;47.686;16.584;2024-03-29T04:36:47;3.89;99.99
66576;SHT31;53428;47.686;16.584;2024-03-29T04:41:46;3.89;99.30
66576;SHT31;53428;47.686;16.584;2024-03-29T04:46:45;3.96;97.87
66576;SHT31;53428;47.686;16.584;2024-03-29T04:51:45;4.02;98.04
66576;SHT31;53428;47.686;16.584;2024-03-29T04:56:44;3.96;97.18
66576;SHT31;53428;47.686;16.584;2024-03-29T05:01:45;4.28;95.72
66576;SHT31;53428;47.686;16.584;2024-03-29T05:06:49;4.37;95.96
66576;SHT31;53428;47.686;16.584;2024-03-29T05:11:48;4.33;95.31
66576;SHT31;53428;47.686;16.584;2024-03-29T05:16:48;4.40;95.22
66576;SHT31;53428;47.686;16.584;2024-03-29T05:21:47;4.53;95.18
66576;SHT31;53428;47.686;16.584;2024-03-29T05:26:46;4.67;94.64
66576;SHT31;53428;47.686;16.584;2024-03-29T05:31:46;4.81;94.14
66576;SHT31;53428;47.686;16.584;2024-03-29T05:36:45;5.02;92.96
66576;SHT31;53428;47.686;16.584;2024-03-29T05:41:44;5.38;92.27
66576;SHT31;53428;47.686;16.584;2024-03-29T05:46:43;5.73;91.88
66576;SHT31;53428;47.686;16.584;2024-03-29T05:51:43;6.07;91.58
66576;SHT31;53428;47.686;16.584;2024-03-29T05:56:42;6.43;90.45
66576;SHT31;53428;47.686;16.584;2024-03-29T06:01:42;6.75;89.68
66576;SHT31;53428;47.686;16.584;2024-03-29T06:06:41;7.29;88.30
66576;SHT31;53428;47.686;16.584;2024-03-29T06:11:40;7.51;88.00
66576;SHT31;53428;47.686;16.584;2024-03-29T06:16:39;7.79;87.25
66576;SHT31;53428;47.686;16.584;2024-03-29T06:21:57;8.34;84.67
66576;SHT31;53428;47.686;16.584;2024-03-29T06:26:56;9.35;79.15
66576;SHT31;53428;47.686;16.584;2024-03-29T06:31:55;9.75;76.87
66576;SHT31;53428;47.686;16.584;2024-03-29T06:36:54;9.96;76.28
66576;SHT31;53428;47.686;16.584;2024-03-29T06:41:54;9.87;77.77
66576;SHT31;53428;47.686;16.584;2024-03-29T06:46:53;9.92;78.77
66576;SHT31;53428;47.686;16.584;2024-03-29T06:51:53;10.00;79.58
66576;SHT31;53428;47.686;16.584;2024-03-29T06:56:53;9.69;81.62
66576;SHT31;53428;47.686;16.584;2024-03-29T07:01:52;9.62;82.24
66576;SHT31;53428;47.686;16.584;2024-03-29T07:06:52;9.65;83.35
66576;SHT31;53428;47.686;16.584;2024-03-29T07:11:51;9.90;83.39
66576;SHT31;53428;47.686;16.584;2024-03-29T07:16:51;10.03;83.07
66576;SHT31;53428;47.686;16.584;2024-03-29T07:21:50;10.07;83.57
66576;SHT31;53428;47.686;16.584;2024-03-29T07:26:51;10.16;84.61
66576;SHT31;53428;47.686;16.584;2024-03-29T07:31:50;10.40;83.40
66576;SHT31;53428;47.686;16.584;2024-03-29T07:36:50;10.61;84.05
66576;SHT31;53428;47.686;16.584;2024-03-29T07:41:49;10.67;83.47
66576;SHT31;53428;47.686;16.584;2024-03-29T07:52:20;11.33;82.65
66576;SHT31;53428;47.686;16.584;2024-03-29T07:57:20;11.77;82.30
66576;SHT31;53428;47.686;16.584;2024-03-29T08:02:19;12.06;82.53
66576;SHT31;53428;47.686;16.584;2024-03-29T08:07:19;12.42;82.11
66576;SHT31;53428;47.686;16.584;2024-03-29T08:12:18;12.56;81.30
66576;SHT31;53428;47.686;16.584;2024-03-29T08:17:17;12.80;80.54
66576;SHT31;53428;47.686;16.584;2024-03-29T08:22:16;13.01;80.50
66576;SHT31;53428;47.686;16.584;2024-03-29T08:27:16;13.16;80.43
66576;SHT31;53428;47.686;16.584;2024-03-29T08:32:16;13.23;80.91
66576;SHT31;53428;47.686;16.584;2024-03-29T08:37:15;13.21;81.32
66576;SHT31;53428;47.686;16.584;2024-03-29T08:42:16;13.36;80.31
66576;SHT31;53428;47.686;16.584;2024-03-29T08:47:16;13.32;80.39
66576;SHT31;53428;47.686;16.584;2024-03-29T08:52:15;13.22;80.85
66576;SHT31;53428;47.686;16.584;2024-03-29T08:57:16;13.05;81.32
66576;SHT31;53428;47.686;16.584;2024-03-29T09:02:16;13.55;80.71
66576;SHT31;53428;47.686;16.584;2024-03-29T09:07:15;13.77;80.48
66576;SHT31;53428;47.686;16.584;2024-03-29T09:12:14;14.01;80.72
66576;SHT31;53428;47.686;16.584;2024-03-29T09:17:13;14.35;79.89
66576;SHT31;53428;47.686;16.584;2024-03-29T09:22:13;14.69;78.42
66576;SHT31;53428;47.686;16.584;2024-03-29T09:27:12;15.02;78.21
66576;SHT31;53428;47.686;16.584;2024-03-29T09:32:11;15.13;77.12
66576;SHT31;53428;47.686;16.584;2024-03-29T09:37:10;15.16;77.60
66576;SHT31;53428;47.686;16.584;2024-03-29T09:42:15;15.28;77.06
66576;SHT31;53428;47.686;16.584;2024-03-29T09:47:16;15.07;77.46
66576;SHT31;53428;47.686;16.584;2024-03-29T09:52:16;15.16;77.67
66576;SHT31;53428;47.686;16.584;2024-03-29T09:57:16;15.26;76.02
66576;SHT31;53428;47.686;16.584;2024-03-29T10:02:17;15.34;73.34
66576;SHT31;53428;47.686;16.584;2024-03-29T10:07:18;15.47;73.35
66576;SHT31;53428;47.686;16.584;2024-03-29T10:12:18;15.37;72.91
66576;SHT31;53428;47.686;16.584;2024-03-29T10:17:18;15.90;72.41
66576;SHT31;53428;47.686;16.584;2024-03-29T10:22:18;16.10;72.20
66576;SHT31;53428;47.686;16.584;2024-03-29T10:27:17;16.48;71.34
66576;SHT31;53428;47.686;16.584;2024-03-29T10:32:17;16.14;71.08
66576;SHT31;53428;47.686;16.584;2024-03-29T10:37:18;16.57;70.34
66576;SHT31;53428;47.686;16.584;2024-03-29T10:42:25;16.57;69.89
66576;SHT31;53428;47.686;16.584;2024-03-29T10:47:26;16.95;69.97
66576;SHT31;53428;47.686;16.584;2024-03-29T10:52:26;17.20;69.54
66576;SHT31;53428;47.686;16.584;2024-03-29T10:57:26;17.15;69.03
66576;SHT31;53428;47.686;16.584;2024-03-29T11:02:39;17.53;68.67
66576;SHT31;53428;47.686;16.584;2024-03-29T11:07:42;17.50;68.49
66576;SHT31;53428;47.686;16.584;2024-03-29T11:12:59;17.37;69.30
66576;SHT31;53428;47.686;16.584;2024-03-29T11:18:00;18.18;67.90
66576;SHT31;53428;47.686;16.584;2024-03-29T11:23:06;18.97;66.31
66576;SHT31;53428;47.686;16.584;2024-03-29T11:28:09;19.15;66.32
66576;SHT31;53428;47.686;16.584;2024-03-29T11:33:31;18.88;66.29
66576;SHT31;53428;47.686;16.584;2024-03-29T11:38:33;20.47;64.32
66576;SHT31;53428;47.686;16.584;2024-03-29T11:43:33;20.64;62.89
66576;SHT31;53428;47.686;16.584;2024-03-29T11:48:33;19.89;63.76
66576;SHT31;53428;47.686;16.584;2024-03-29T11:53:32;20.14;62.82
66576;SHT31;53428;47.686;16.584;2024-03-29T11:58:33;20.08;62.66
66576;SHT31;53428;47.686;16.584;2024-03-29T12:03:32;20.42;61.94
66576;SHT31;53428;47.686;16.584;2024-03-29T12:08:37;20.71;61.46
66576;SHT31;53428;47.686;16.584;2024-03-29T12:13:37;20.27;62.41
66576;SHT31;53428;47.686;16.584;2024-03-29T12:18:38;20.86;61.52
66576;SHT31;53428;47.686;16.584;2024-03-29T12:23:37;20.56;62.30
66576;SHT31;53428;47.686;16.584;2024-03-29T12:28:37;20.62;60.95
66576;SHT31;53428;47.686;16.584;2024-03-29T12:33:36;21.08;60.31
66576;SHT31;53428;47.686;16.584;2024-03-29T12:38:35;21.78;57.94
66576;SHT31;53428;47.686;16.584;2024-03-29T12:43:36;22.57;56.77
66576;SHT31;53428;47.686;16.584;2024-03-29T12:48:35;21.85;58.08
66576;SHT31;53428;47.686;16.584;2024-03-29T12:53:37;21.92;58.05
66576;SHT31;53428;47.686;16.584;2024-03-29T12:58:37;20.93;60.26
66576;SHT31;53428;47.686;16.584;2024-03-29T13:03:36;21.11;60.04
66576;SHT31;53428;47.686;16.584;2024-03-29T13:08:37;19.79;62.76
66576;SHT31;53428;47.686;16.584;2024-03-29T13:13:36;19.66;63.15
66576;SHT31;53428;47.686;16.584;2024-03-29T13:18:36;19.10;64.61
66576;SHT31;53428;47.686;16.584;2024-03-29T13:23:35;18.70;65.27
66576;SHT31;53428;47.686;16.584;2024-03-29T13:28:34;18.56;66.53
66576;SHT31;53428;47.686;16.584;2024-03-29T13:33:33;18.56;67.34
66576;SHT31;53428;47.686;16.584;2024-03-29T13:38:32;18.73;67.17
66576;SHT31;53428;47.686;16.584;2024-03-29T13:43:32;18.59;67.55
66576;SHT31;53428;47.686;16.584;2024-03-29T13:48:33;18.74;67.71
66576;SHT31;53428;47.686;16.584;2024-03-29T13:53:33;18.97;67.55
66576;SHT31;53428;47.686;16.584;2024-03-29T13:58:34;18.81;67.78
66576;SHT31;53428;47.686;16.584;2024-03-29T14:03:33;19.18;67.20
66576;SHT31;53428;47.686;16.584;2024-03-29T14:08:33;19.59;66.71
66576;SHT31;53428;47.686;16.584;2024-03-29T14:13:32;20.13;65.18
66576;SHT31;53428;47.686;16.584;2024-03-29T14:18:31;20.97;63.92
66576;SHT31;53428;47.686;16.584;2024-03-29T14:23:31;22.32;60.67
66576;SHT31;53428;47.686;16.584;2024-03-29T14:28:30;22.27;61.46
66576;SHT31;53428;47.686;16.584;2024-03-29T14:33:29;22.51;60.59
66576;SHT31;53428;47.686;16.584;2024-03-29T14:38:29;21.91;62.81
66576;SHT31;53428;47.686;16.584;2024-03-29T14:43:28;21.64;63.99
66576;SHT31;53428;47.686;16.584;2024-03-29T14:48:28;20.55;66.28
66576;SHT31;53428;47.686;16.584;2024-03-29T14:53:27;20.62;66.27
66576;SHT31;53428;47.686;16.584;2024-03-29T14:58:26;20.56;66.13
66576;SHT31;53428;47.686;16.584;2024-03-29T15:03:25;20.38;66.67
66576;SHT31;53428;47.686;16.584;2024-03-29T15:08:25;19.89;67.73
66576;SHT31;53428;47.686;16.584;2024-03-29T15:13:24;19.33;69.35
66576;SHT31;53428;47.686;16.584;2024-03-29T15:18:24;18.74;70.50
66576;SHT31;53428;47.686;16.584;2024-03-29T15:23:23;18.43;71.58
66576;SHT31;53428;47.686;16.584;2024-03-29T15:28:25;18.35;71.87
66576;SHT31;53428;47.686;16.584;2024-03-29T15:33:43;18.21;72.38
66576;SHT31;53428;47.686;16.584;2024-03-29T15:38:42;18.04;72.71
66576;SHT31;53428;47.686;16.584;2024-03-29T15:43:42;17.95;72.94
66576;SHT31;53428;47.686;16.584;2024-03-29T15:48:41;17.84;73.56
66576;SHT31;53428;47.686;16.584;2024-03-29T15:53:40;17.84;73.68
66576;SHT31;53428;47.686;16.584;2024-03-29T15:58:40;17.69;74.09
66576;SHT31;53428;47.686;16.584;2024-03-29T16:03:39;17.59;74.16
66576;SHT31;53428;47.686;16.584;2024-03-29T16:08:39;17.50;74.26
66576;SHT31;53428;47.686;16.584;2024-03-29T16:13:38;17.39;74.48
66576;SHT31;53428;47.686;16.584;2024-03-29T16:18:40;17.33;74.93
66576;SHT31;53428;47.686;16.584;2024-03-29T16:23:39;17.29;75.15
66576;SHT31;53428;47.686;16.584;2024-03-29T16:28:39;17.19;75.23
66576;SHT31;53428;47.686;16.584;2024-03-29T16:33:38;17.16;75.26
66576;SHT31;53428;47.686;16.584;2024-03-29T16:38:37;17.12;75.21
66576;SHT31;53428;47.686;16.584;2024-03-29T16:43:38;17.13;74.92
66576;SHT31;53428;47.686;16.584;2024-03-29T16:48:38;17.06;75.07
66576;SHT31;53428;47.686;16.584;2024-03-29T16:53:37;17.13;74.52
66576;SHT31;53428;47.686;16.584;2024-03-29T16:58:37;17.09;74.76
66576;SHT31;53428;47.686;16.584;2024-03-29T17:03:36;17.08;74.53
66576;SHT31;53428;47.686;16.584;2024-03-29T17:08:35;17.05;74.30
66576;SHT31;53428;47.686;16.584;2024-03-29T17:13:35;17.01;74.31
66576;SHT31;53428;47.686;16.584;2024-03-29T17:18:34;16.96;73.98
66576;SHT31;53428;47.686;16.584;2024-03-29T17:23:33;16.89;74.27
66576;SHT31;53428;47.686;16.584;2024-03-29T17:28:33;16.93;74.11
66576;SHT31;53428;47.686;16.584;2024-03-29T17:33:32;16.88;74.18
66576;SHT31;53428;47.686;16.584;2024-03-29T17:38:31;16.88;74.15
66576;SHT31;53428;47.686;16.584;2024-03-29T17:43:31;16.79;74.53
66576;SHT31;53428;47.686;16.584;2024-03-29T17:48:30;16.69;74.96
66576;SHT31;53428;47.686;16.584;2024-03-29T17:53:33;16.74;74.79
66576;SHT31;53428;47.686;16.584;2024-03-29T17:58:32;16.60;75.37
66576;SHT31;53428;47.686;16.584;2024-03-29T18:03:32;16.63;75.12
66576;SHT31;53428;47.686;16.584;2024-03-29T18:08:31;16.53;75.52
66576;SHT31;53428;47.686;16.584;2024-03-29T18:13:32;16.60;75.28
66576;SHT31;53428;47.686;16.584;2024-03-29T18:18:34;16.64;74.81
66576;SHT31;53428;47.686;16.584;2024-03-29T18:23:33;16.61;74.84
66576;SHT31;53428;47.686;16.584;2024-03-29T18:28:33;16.81;73.74
66576;SHT31;53428;47.686;16.584;2024-03-29T18:33:34;16.72;74.07
66576;SHT31;53428;47.686;16.584;2024-03-29T18:38:34;16.60;74.38
66576;SHT31;53428;47.686;16.584;2024-03-29T18:43:35;16.69;73.70
66576;SHT31;53428;47.686;16.584;2024-03-29T18:48:34;16.89;72.81
66576;SHT31;53428;47.686;16.584;2024-03-29T18:53:33;16.95;72.46
66576;SHT31;53428;47.686;16.584;2024-03-29T18:58:36;16.91;72.39
66576;SHT31;53428;47.686;16.584;2024-03-29T19:03:35;16.93;71.90
66576;SHT31;53428;47.686;16.584;2024-03-29T19:08:34;16.95;71.82
66576;SHT31;53428;47.686;16.584;2024-03-29T19:13:33;16.99;71.42
66576;SHT31;53428;47.686;16.584;2024-03-29T19:18:33;17.01;71.30
66576;SHT31;53428;47.686;16.584;2024-03-29T19:23:32;16.99;71.20
66576;SHT31;53428;47.686;16.584;2024-03-29T19:28:31;17.06;70.69
66576;SHT31;53428;47.686;16.584;2024-03-29T19:33:30;17.13;70.43
66576;SHT31;53428;47.686;16.584;2024-03-29T19:38:30;17.13;70.25
66576;SHT31;53428;47.686;16.584;2024-03-29T19:43:29;17.16;70.03
66576;SHT31;53428;47.686;16.584;2024-03-29T19:48:30;17.12;70.19
66576;SHT31;53428;47.686;16.584;2024-03-29T19:53:30;17.11;69.78
66576;SHT31;53428;47.686;16.584;2024-03-29T19:58:29;17.26;69.23
66576;SHT31;53428;47.686;16.584;2024-03-29T20:03:29;17.23;69.27
66576;SHT31;53428;47.686;16.584;2024-03-29T20:08:29;17.27;69.04
66576;SHT31;53428;47.686;16.584;2024-03-29T20:13:29;17.27;68.88
66576;SHT31;53428;47.686;16.584;2024-03-29T20:18:29;17.33;68.51
66576;SHT31;53428;47.686;16.584;2024-03-29T20:23:28;17.32;68.39
66576;SHT31;53428;47.686;16.584;2024-03-29T20:28:28;17.39;68.05
66576;SHT31;53428;47.686;16.584;2024-03-29T20:33:27;17.50;67.47
66576;SHT31;53428;47.686;16.584;2024-03-29T20:38:29;17.47;67.55
66576;SHT31;53428;47.686;16.584;2024-03-29T20:43:28;17.55;67.10
66576;SHT31;53428;47.686;16.584;2024-03-29T20:48:29;17.55;66.90
66576;SHT31;53428;47.686;16.584;2024-03-29T20:53:28;17.69;66.38
66576;SHT31;53428;47.686;16.584;2024-03-29T20:58:28;17.74;66.00
66576;SHT31;53428;47.686;16.584;2024-03-29T21:03:28;17.69;66.00
66576;SHT31;53428;47.686;16.584;2024-03-29T21:08:46;17.73;65.64
66576;SHT31;53428;47.686;16.584;2024-03-29T21:13:45;17.78;65.34
66576;SHT31;53428;47.686;16.584;2024-03-29T21:18:45;17.89;64.79
66576;SHT31;53428;47.686;16.584;2024-03-29T21:23:44;17.91;64.71
66576;SHT31;53428;47.686;16.584;2024-03-29T21:28:44;17.88;64.62
66576;SHT31;53428;47.686;16.584;2024-03-29T21:33:43;17.85;64.58
66576;SHT31;53428;47.686;16.584;2024-03-29T21:38:42;17.78;64.84
66576;SHT31;53428;47.686;16.584;2024-03-29T21:43:43;17.78;64.67
66576;SHT31;53428;47.686;16.584;2024-03-29T21:48:42;17.81;64.51
66576;SHT31;53428;47.686;16.584;2024-03-29T21:53:42;17.92;64.04
66576;SHT31;53428;47.686;16.584;2024-03-29T21:58:41;17.89;63.93
66576;SHT31;53428;47.686;16.584;2024-03-29T22:03:40;17.95;63.71
66576;SHT31;53428;47.686;16.584;2024-03-29T22:08:39;17.85;63.93
66576;SHT31;53428;47.686;16.584;2024-03-29T22:13:39;17.88;63.87
66576;SHT31;53428;47.686;16.584;2024-03-29T22:18:38;17.87;63.86
66576;SHT31;53428;47.686;16.584;2024-03-29T22:23:38;17.97;63.32
66576;SHT31;53428;47.686;16.584;2024-03-29T22:28:37;18.01;63.14
66576;SHT31;53428;47.686;16.584;2024-03-29T22:33:36;18.02;62.73
66576;SHT31;53428;47.686;16.584;2024-03-29T22:38:36;18.16;62.14
66576;SHT31;53428;47.686;16.584;2024-03-29T22:43:35;18.26;61.58
66576;SHT31;53428;47.686;16.584;2024-03-29T22:48:35;18.52;60.55
66576;SHT31;53428;47.686;16.584;2024-03-29T22:53:34;18.68;59.84
66576;SHT31;53428;47.686;16.584;2024-03-29T22:58:33;18.52;60.60
66576;SHT31;53428;47.686;16.584;2024-03-29T23:03:33;18.39;61.03
66576;SHT31;53428;47.686;16.584;2024-03-29T23:08:32;18.30;61.36
66576;SHT31;53428;47.686;16.584;2024-03-29T23:13:31;18.42;60.79
66576;SHT31;53428;47.686;16.584;2024-03-29T23:18:30;18.32;61.34
66576;SHT31;53428;47.686;16.584;2024-03-29T23:23:30;18.24;61.64
66576;SHT31;53428;47.686;16.584;2024-03-29T23:28:29;18.21;61.75
66576;SHT31;53428;47.686;16.584;2024-03-29T23:33:28;18.24;61.63
66576;SHT31;53428;47.686;16.584;2024-03-29T23:38:28;18.46;60.74
66576;SHT31;53428;47.686;16.584;2024-03-29T23:43:27;18.36;61.16
66576;SHT31;53428;47.686;16.584;2024-03-29T23:48:32;18.40;61.07
66576;SHT31;53428;47.686;16.584;2024-03-29T23:53:31;18.36;61.14
66576;SHT31;53428;47.686;16.584;2024-03-29T23:58:30;18.40;61.02
